Time;durP1;ratioP1;P1;durP2;ratioP2;P2;SDS_P1;SDS_P2;PMS_P1;PMS_P2;Temp;Humidity;BMP_temperature;BMP_pressure;BME280_temperature;BME280_humidity;BME280_pressure;Samples;Min_cycle;Max_cycle;Signal;HPM_P1;HPM_P2
2022/02/23 06:48:27;;;;;;;5.45;1.60;;;;;;;;;;10682021;27;20125;-84
2022/02/23 06:53:28;;;;;;;5.82;1.88;;;;;;;;;;10607528;28;20043;-84
2022/02/23 06:58:29;;;;;;;5.38;1.75;;;;;;;;;;10563295;28;20087;-84
2022/02/23 07:03:31;;;;;;;;;;;;;;;;;;10609237;28;20008;-84
2022/02/23 07:08:32;;;;;;;5.53;2.10;;;;;;;;;;10608777;28;19943;-84
2022/02/23 07:13:36;;;;;;;6.05;1.80;;;;;;;;;;10606677;28;20031;-84
2022/02/23 07:18:37;;;;;;;3.88;1.80;;;;;;;;;;10625015;28;20043;-85
2022/02/23 07:23:44;;;;;;;6.43;2.22;;;;;;;;;;10581601;28;20095;-85
2022/02/23 07:29:05;;;;;;;6.30;2.65;;;;;;;;;;10580889;28;20045;-85
2022/02/23 07:34:10;;;;;;;;;;;;;;;;;;10580939;28;20171;-86
2022/02/23 07:39:18;;;;;;;5.90;2.17;;;;;;;;;;10598120;28;19904;-85
2022/02/23 07:44:20;;;;;;;5.43;1.90;;;;;;;;;;10579421;28;20042;-85
2022/02/23 07:49:28;;;;;;;4.53;1.90;;;;;;;;;;10585592;28;20387;-85
2022/02/23 07:54:34;;;;;;;4.88;2.28;;;;;;;;;;10573995;28;20020;-85
2022/02/23 07:59:36;;;;;;;7.05;2.30;;;;;;;;;;10547874;28;20030;-85
2022/02/23 08:04:37;;;;;;;6.82;2.50;;;;;;;;;;10546576;28;20059;-81
2022/02/23 08:09:38;;;;;;;;;;;;;;;;;;10536124;28;20149;-80
2022/02/23 08:14:42;;;;;;;7.75;3.08;;;;;;;;;;10537674;28;19934;-79
2022/02/23 08:19:44;;;;;;;7.03;2.88;;;;;;;;;;10537665;28;20482;-81
2022/02/23 08:24:47;;;;;;;7.70;2.90;;;;;;;;;;10539809;28;20039;-79
2022/02/23 08:29:48;;;;;;;4.90;2.42;;;;;;;;;;10540709;28;20035;-79
2022/02/23 08:34:51;;;;;;;6.65;3.08;;;;;;;;;;10539614;28;20028;-79
2022/02/23 08:39:52;;;;;;;7.90;3.42;;;;;;;;;;10556530;28;20023;-79
2022/02/23 08:44:53;;;;;;;;;;;;;;;;;;10543176;28;20110;-79
2022/02/23 08:49:54;;;;;;;6.97;3.22;;;;;;;;;;10537807;28;19904;-79
2022/02/23 08:54:55;;;;;;;7.72;2.85;;;;;;;;;;10537048;28;20119;-80
2022/02/23 08:59:56;;;;;;;7.70;3.42;;;;;;;;;;10536428;28;20028;-79
2022/02/23 09:04:57;;;;;;;;;;;;;;;;;;10553529;28;20093;-79
2022/02/23 09:09:58;;;;;;;9.25;3.55;;;;;;;;;;10532343;28;19904;-80
2022/02/23 09:14:59;;;;;;;9.60;4.00;;;;;;;;;;10534511;28;20056;-80
2022/02/23 09:20:00;;;;;;;10.50;4.50;;;;;;;;;;10535011;28;20054;-80
2022/02/23 09:25:01;;;;;;;;;;;;;;;;;;10553427;28;20062;-80
2022/02/23 09:30:03;;;;;;;8.48;3.65;;;;;;;;;;10533252;28;19904;-80
2022/02/23 09:35:04;;;;;;;11.75;5.35;;;;;;;;;;10533867;28;20036;-79
2022/02/23 09:40:06;;;;;;;12.18;6.22;;;;;;;;;;10534025;28;20028;-80
2022/02/23 09:45:07;;;;;;;10.73;4.80;;;;;;;;;;10532353;28;20040;-79
2022/02/23 09:50:18;;;;;;;6.90;3.53;;;;;;;;;;10533553;28;20031;-79
2022/02/23 09:55:24;;;;;;;10.00;4.35;;;;;;;;;;10532736;28;20025;-79
2022/02/23 10:00:25;;;;;;;7.00;3.22;;;;;;;;;;10550970;28;20020;-80
2022/02/23 10:05:26;;;;;;;6.95;3.35;;;;;;;;;;10532372;28;20028;-80
2022/02/23 10:10:30;;;;;;;8.52;3.50;;;;;;;;;;10551349;28;20050;-78
2022/02/23 10:15:38;;;;;;;10.27;4.22;;;;;;;;;;10529876;28;20085;-79
2022/02/23 10:20:40;;;;;;;8.65;4.38;;;;;;;;;;10531657;28;20028;-78
2022/02/23 10:25:43;;;;;;;8.90;3.90;;;;;;;;;;10547398;28;20160;-78
2022/02/23 10:30:50;;;;;;;11.18;4.53;;;;;;;;;;10547226;28;20035;-78
2022/02/23 10:36:03;;;;;;;10.60;4.07;;;;;;;;;;10545431;28;20039;-81
2022/02/23 10:41:05;;;;;;;13.98;8.20;;;;;;;;;;10526368;28;20089;-78
2022/02/23 10:46:10;;;;;;;7.55;3.45;;;;;;;;;;10545138;28;20436;-79
2022/02/23 10:51:14;;;;;;;6.40;2.85;;;;;;;;;;10545219;28;20150;-79
2022/02/23 10:56:20;;;;;;;8.90;3.45;;;;;;;;;;10527869;28;20028;-78
2022/02/23 11:01:23;;;;;;;7.88;3.13;;;;;;;;;;10547778;28;20020;-79
2022/02/23 11:06:24;;;;;;;7.75;2.80;;;;;;;;;;10516246;28;20028;-78
2022/02/23 11:11:26;;;;;;;7.60;3.28;;;;;;;;;;10531094;28;20485;-79
2022/02/23 11:16:28;;;;;;;10.20;3.50;;;;;;;;;;10549677;28;20024;-79
2022/02/23 11:21:33;;;;;;;8.93;3.65;;;;;;;;;;10553444;28;20476;-78
2022/02/23 11:26:35;;;;;;;6.03;2.70;;;;;;;;;;10546245;28;20024;-79
2022/02/23 11:31:37;;;;;;;12.25;8.55;;;;;;;;;;10550346;28;20031;-80
2022/02/23 11:36:42;;;;;;;9.40;3.03;;;;;;;;;;10535417;28;20367;-80
2022/02/23 11:41:52;;;;;;;8.65;3.75;;;;;;;;;;10541910;28;20024;-79
2022/02/23 11:52:51;;;;;;;6.45;2.72;;;;;;;;;;10553617;28;20016;-79
2022/02/23 12:03:31;;;;;;;6.05;2.38;;;;;;;;;;10553754;28;20035;-79
2022/02/23 12:08:32;;;;;;;;;;;;;;;;;;10554567;28;20126;-78
2022/02/23 12:13:38;;;;;;;7.32;2.30;;;;;;;;;;10534175;28;19936;-79
2022/02/23 12:18:45;;;;;;;7.88;2.17;;;;;;;;;;10535506;28;20030;-79
2022/02/23 12:23:47;;;;;;;4.97;2.25;;;;;;;;;;10534463;28;20020;-79
2022/02/23 12:28:49;;;;;;;5.65;3.03;;;;;;;;;;10533214;28;20031;-78
2022/02/23 12:34:07;;;;;;;5.90;2.30;;;;;;;;;;10553725;28;20031;-78
2022/02/23 12:39:10;;;;;;;5.88;2.22;;;;;;;;;;10535076;28;20350;-79
2022/02/23 12:44:21;;;;;;;7.38;2.13;;;;;;;;;;10534843;28;20046;-79
2022/02/23 12:49:23;;;;;;;7.95;2.47;;;;;;;;;;10535430;28;20114;-78
2022/02/23 12:54:25;;;;;;;7.15;2.47;;;;;;;;;;10543940;28;20031;-79
2022/02/23 12:59:30;;;;;;;5.25;2.25;;;;;;;;;;10532619;28;20046;-79
2022/02/23 13:04:32;;;;;;;4.60;2.20;;;;;;;;;;10536478;28;20378;-79
2022/02/23 13:09:35;;;;;;;6.57;2.63;;;;;;;;;;10551224;28;20448;-78
2022/02/23 13:14:37;;;;;;;5.75;2.03;;;;;;;;;;10533008;28;20020;-79
2022/02/23 13:19:42;;;;;;;5.53;3.03;;;;;;;;;;10535323;28;20017;-79
2022/02/23 13:24:43;;;;;;;6.63;2.58;;;;;;;;;;10552691;28;20056;-78
2022/02/23 13:29:46;;;;;;;3.80;1.88;;;;;;;;;;10531137;28;20087;-78
2022/02/23 13:34:52;;;;;;;7.82;2.65;;;;;;;;;;10533601;28;20067;-79
2022/02/23 13:40:04;;;;;;;4.28;1.55;;;;;;;;;;10534540;28;20024;-79
2022/02/23 13:45:10;;;;;;;6.95;3.22;;;;;;;;;;10551103;28;20171;-79
2022/02/23 13:50:21;;;;;;;5.57;2.08;;;;;;;;;;10549721;28;20028;-78
2022/02/23 13:55:22;;;;;;;5.85;2.00;;;;;;;;;;10549857;28;20020;-78
2022/02/23 14:00:31;;;;;;;6.32;1.60;;;;;;;;;;10531753;28;20020;-78
2022/02/23 14:05:32;;;;;;;7.03;1.85;;;;;;;;;;10547162;28;20016;-78
2022/02/23 14:10:37;;;;;;;3.97;1.83;;;;;;;;;;10546644;28;20024;-78
2022/02/23 14:15:39;;;;;;;5.20;2.00;;;;;;;;;;10546737;28;20031;-78
2022/02/23 14:20:40;;;;;;;5.35;2.10;;;;;;;;;;10528864;28;20047;-78
2022/02/23 14:25:41;;;;;;;;;;;;;;;;;;10530409;28;20478;-78
2022/02/23 14:30:48;;;;;;;4.95;1.58;;;;;;;;;;10532582;28;19904;-79
2022/02/23 14:35:50;;;;;;;5.45;1.63;;;;;;;;;;10550277;28;20039;-78
2022/02/23 14:40:51;;;;;;;3.85;1.63;;;;;;;;;;10533799;28;20088;-79
2022/02/23 14:45:53;;;;;;;4.38;1.38;;;;;;;;;;10534925;28;20067;-80
2022/02/23 14:50:54;;;;;;;6.05;1.50;;;;;;;;;;10530336;28;20030;-79
2022/02/23 14:55:56;;;;;;;4.85;1.63;;;;;;;;;;10530403;28;20062;-79
2022/02/23 15:00:57;;;;;;;5.35;1.48;;;;;;;;;;10529578;28;20114;-78
2022/02/23 15:05:59;;;;;;;3.78;1.27;;;;;;;;;;10534115;28;20028;-79
2022/02/23 15:11:00;;;;;;;3.33;1.63;;;;;;;;;;10555578;28;20040;-77
2022/02/23 15:16:01;;;;;;;;;;;;;;;;;;10538445;28;20044;-79
2022/02/23 15:21:03;;;;;;;5.93;1.90;;;;;;;;;;10538181;28;19932;-79
2022/02/23 15:26:04;;;;;;;5.95;1.60;;;;;;;;;;10556352;28;20027;-80
2022/02/23 15:31:05;;;;;;;;;;;;;;;;;;10539020;28;20116;-80
2022/02/23 15:36:06;;;;;;;5.78;1.80;;;;;;;;;;10538599;28;19908;-81
2022/02/23 15:41:07;;;;;;;2.47;1.25;;;;;;;;;;10557524;28;20027;-79
2022/02/23 15:46:08;;;;;;;;;;;;;;;;;;10555163;28;20063;-78
2022/02/23 15:51:09;;;;;;;6.30;1.25;;;;;;;;;;10554867;28;19925;-79
2022/02/23 15:56:10;;;;;;;;;;;;;;;;;;10558672;28;20077;-80
2022/02/23 16:01:12;;;;;;;4.70;1.20;;;;;;;;;;10542920;28;19904;-80
2022/02/23 16:06:13;;;;;;;4.45;1.65;;;;;;;;;;10562670;28;20016;-80
2022/02/23 16:11:14;;;;;;;3.47;1.45;;;;;;;;;;10542500;28;20024;-78
2022/02/23 16:16:16;;;;;;;4.82;1.65;;;;;;;;;;10551884;28;20020;-81
2022/02/23 16:21:18;;;;;;;4.07;1.45;;;;;;;;;;10558526;28;20029;-79
2022/02/23 16:26:19;;;;;;;4.57;1.48;;;;;;;;;;10542808;28;20162;-79
2022/02/23 16:31:21;;;;;;;5.22;1.30;;;;;;;;;;10538043;28;20541;-78
2022/02/23 16:36:23;;;;;;;4.43;1.60;;;;;;;;;;10541159;28;20478;-78
2022/02/23 16:41:24;;;;;;;4.10;1.42;;;;;;;;;;10536809;28;20023;-78
2022/02/23 16:46:25;;;;;;;7.63;1.60;;;;;;;;;;10532692;28;20032;-81
2022/02/23 16:51:26;;;;;;;6.00;2.08;;;;;;;;;;10551154;28;20039;-79
2022/02/23 16:56:27;;;;;;;7.40;2.15;;;;;;;;;;10537149;28;20035;-78
2022/02/23 17:01:29;;;;;;;5.80;2.17;;;;;;;;;;10557166;28;20481;-75
2022/02/23 17:06:30;;;;;;;6.45;2.22;;;;;;;;;;10555196;28;20028;-77
2022/02/23 17:11:31;;;;;;;3.22;1.70;;;;;;;;;;10562697;28;20032;-77
2022/02/23 17:16:32;;;;;;;5.40;2.00;;;;;;;;;;10562615;28;20039;-80
2022/02/23 17:21:33;;;;;;;5.63;3.08;;;;;;;;;;10559734;28;20032;-86
